Terminal Aerodrome Forecast
Issued by NWS

Current Version | Previous Version | Text Only | Print | Product List | Glossary On
Versions: 1 2 3 4 5 6 7 8 9 10 11 12 13 14
930
FTUS45 KRIW 282147 AAA
TAFCPR
TAF AMD
KCPR 282147Z 2822/2918 26017G26KT P6SM SCT100
      TEMPO 2822/2824 VRB30G45KT 5SM -TSRA SCT100CB BKN150
     FM290400 VRB10G15KT P6SM VCSH BKN100
     FM290800 25007KT P6SM BKN120
     FM291500 25014G20KT P6SM SCT100=

USA.gov is the U.S. government's official web portal to all federal, state and local government web resources and services.